• Join FlightAware (Why Join?)
  • Login
  • US Flag 
01:54AM EST


 

Airport Tracker/Info


-or-


 

Live Flight TrackerFlight Track Log ✈ TFX114 ✈ 19-Jul-2013 ✈ YSBK / BWU - YCFS

Flight Track Log - Related Links

Times and Time Zones

All times are in EDT time to prevent confusion due to time zone crossing. See the TFX114 flight status page for this flight to view local times or setup timezone preferences in your user account.

Time Position Orientation Groundspeed Altitude Reporting Facility
EDT Latitude Longitude Course Direction KTS MPH feet Rate Location/Type
04:58PM -33.8993 150.9347 312° West 139 160 2,500  Level Aus ATC (RADAR)
04:59PM -33.8754 150.9023 312° West 130 150 4,700 1,680 Climbing Aus ATC (RADAR)
05:00PM -33.8376 150.9133 14° North 145 167 6,100 1,320 Climbing Aus ATC (RADAR)
05:01PM -33.8061 150.9232 15° North 156 180 7,100 1,320 Climbing Aus ATC (RADAR)
05:02PM -33.7918 150.9571 63° Northeast 193 222 7,900 1,500 Climbing Aus ATC (RADAR)
05:02PM -33.7792 150.9992 70° East 200 230 9,000 1,560 Climbing Aus ATC (RADAR)
05:03PM -33.7683 151.0357 70° East 199 229 9,900 1,500 Climbing Aus ATC (RADAR)
05:03PM -33.7581 151.0717 71° East 197 227 10,800 1,680 Climbing Aus ATC (RADAR)
05:04PM -33.7476 151.1110 72° East 186 214 12,000 1,560 Climbing Aus ATC (RADAR)
05:05PM -33.7411 151.1447 77° East 179 206 12,800 1,260 Climbing Aus ATC (RADAR)
05:05PM -33.7337 151.1889 79° East 179 206 13,700 1,080 Climbing Aus ATC (RADAR)
05:06PM -33.7075 151.2275 51° Northeast 173 199 14,600 780 Climbing Aus ATC (RADAR)
05:07PM -33.6735 151.2435 21° North 179 206 15,000 300 Climbing Aus ATC (RADAR)
05:08PM -33.6220 151.2603 15° North 203 234 15,100 60 Climbing Aus ATC (RADAR)
05:09PM -33.5769 151.2729 13° North 229 264 15,100  Level Aus ATC (RADAR)
05:09PM -33.5393 151.2836 13° North 238 274 15,100  Level Aus ATC (RADAR)
05:10PM -33.5012 151.2936 12° North 241 277 15,100  Level Aus ATC (RADAR)
05:11PM -33.4519 151.3076 13° North 243 280 15,100  Level Aus ATC (RADAR)
05:12PM -33.3909 151.3256 14° North 247 284 15,100  Level Aus ATC (RADAR)
05:12PM -33.3463 151.3389 14° North 248 285 15,100  Level Aus ATC (RADAR)
05:13PM -33.3071 151.3505 14° North 249 287 15,100  Level Aus ATC (RADAR)
05:13PM -33.2675 151.3619 14° North 250 288 15,100  Level Aus ATC (RADAR)
05:14PM -33.2337 151.3723 14° North 250 288 15,100  Level Aus ATC (RADAR)
05:14PM -33.1941 151.3837 14° North 250 288 15,100  Level Aus ATC (RADAR)
05:15PM -33.1545 151.3958 14° North 251 289 15,100  Level Aus ATC (RADAR)
05:16PM -33.0731 151.4520 30° Northeast 253 291 15,100  Level Aus ATC (RADAR)
05:17PM -33.0217 151.4976 37° Northeast 248 285 15,100  Level Aus ATC (RADAR)
05:18PM -32.9802 151.5354 37° Northeast 247 284 15,100  Level Aus ATC (RADAR)
05:19PM -32.9486 151.5654 38° Northeast 246 283 15,100  Level Aus ATC (RADAR)
05:19PM -32.9174 151.5950 39° Northeast 243 280 15,100  Level Aus ATC (RADAR)
05:20PM -32.8862 151.6241 38° Northeast 241 277 15,100  Level Aus ATC (RADAR)
05:21PM -32.8449 151.6618 38° Northeast 237 273 15,100  Level Aus ATC (RADAR)
05:21PM -32.8190 151.6835 35° Northeast 236 272 15,100  Level Aus ATC (RADAR)
05:22PM -32.7652 151.7311 37° Northeast 237 273 15,100  Level Aus ATC (RADAR)
05:23PM -32.7211 151.7709 37° Northeast 236 272 15,100  Level Aus ATC (RADAR)
05:23PM -32.6907 151.7987 38° Northeast 234 269 15,100  Level Aus ATC (RADAR)
05:24PM -32.6562 151.8304 38° Northeast 231 266 15,100  Level Aus ATC (RADAR)
05:25PM -32.6002 151.8826 38° Northeast 229 264 15,100  Level Aus ATC (RADAR)
05:26PM -32.5539 151.9233 37° Northeast 228 262 15,100  Level Aus ATC (RADAR)
05:27PM -32.5026 151.9690 37° Northeast 227 261 15,100  Level Aus ATC (RADAR)
05:28PM -32.4641 152.0031 37° Northeast 227 261 15,100  Level Aus ATC (RADAR)
05:28PM -32.4341 152.0298 37° Northeast 227 261 15,100  Level Aus ATC (RADAR)
05:29PM -32.4039 152.0582 38° Northeast 230 265 15,100  Level Aus ATC (RADAR)
05:30PM -32.3747 152.0845 37° Northeast 230 265 15,100  Level Aus ATC (RADAR)
05:30PM -32.3445 152.1122 38° Northeast 232 267 15,100  Level Aus ATC (RADAR)
05:31PM -32.2922 152.1583 37° Northeast 231 266 15,100  Level Aus ATC (RADAR)
05:32PM -32.2392 152.2045 36° Northeast 234 269 15,100  Level Aus ATC (RADAR)
05:33PM -32.1995 152.2367 35° Northeast 229 264 15,100  Level Aus ATC (RADAR)
05:33PM -32.1682 152.2631 35° Northeast 229 264 15,100  Level Aus ATC (RADAR)
05:34PM -32.1429 152.2839 35° Northeast 227 261 15,100  Level Aus ATC (RADAR)
05:35PM -32.1168 152.3058 35° Northeast 226 260 15,100  Level Aus ATC (RADAR)
05:35PM -32.0859 152.3310 35° Northeast 227 261 15,100  Level Aus ATC (RADAR)
05:36PM -32.0304 152.3769 35° Northeast 222 255 15,100  Level Aus ATC (RADAR)
05:37PM -31.9873 152.4129 35° Northeast 224 258 15,100  Level Aus ATC (RADAR)
05:38PM -31.9523 152.4418 35° Northeast 228 262 15,100 60 Level Aus ATC (RADAR)
05:39PM -31.8991 152.4852 35° Northeast 228 262 15,200 60 Climbing Aus ATC (RADAR)
05:39PM -31.8640 152.5133 34° Northeast 225 259 15,200  Level Aus ATC (RADAR)
05:40PM -31.8338 152.5376 34° Northeast 222 255 15,200  Level Aus ATC (RADAR)
05:40PM -31.8043 152.5617 35° Northeast 218 251 15,200  Level Aus ATC (RADAR)
05:41PM -31.7699 152.5896 35° Northeast 221 254 15,200  Level Aus ATC (RADAR)
05:42PM -31.7184 152.6311 34° Northeast 221 254 15,200  Level Aus ATC (RADAR)
05:43PM -31.6832 152.6594 34° Northeast 226 260 15,200  Level Aus ATC (RADAR)
05:43PM -31.6516 152.6839 33° Northeast 231 266 15,200  Level Aus ATC (RADAR)
05:44PM -31.6196 152.7093 34° Northeast 233 268 15,200  Level Aus ATC (RADAR)
05:44PM -31.5939 152.7294 34° Northeast 226 260 15,200  Level Aus ATC (RADAR)
05:45PM -31.5617 152.7539 33° Northeast 231 266 15,200  Level Aus ATC (RADAR)
05:46PM -31.5293 152.7780 32° Northeast 232 267 15,200  Level Aus ATC (RADAR)
05:47PM -31.4627 152.8288 33° Northeast 225 259 15,200  Level Aus ATC (RADAR)
05:48PM -31.4180 152.8605 31° Northeast 219 252 15,200  Level Aus ATC (RADAR)
05:48PM -31.3784 152.8686 10° North 211 243 15,200  Level Aus ATC (RADAR)
05:49PM -31.3364 152.8780 11° North 217 250 15,200  Level Aus ATC (RADAR)
05:50PM -31.3067 152.8843 10° North 220 253 15,200  Level Aus ATC (RADAR)
05:50PM -31.2723 152.8921 11° North 217 250 15,200  Level Aus ATC (RADAR)
05:51PM -31.2374 152.9009 12° North 217 250 15,200  Level Aus ATC (RADAR)
05:51PM -31.2026 152.9086 11° North 218 251 15,200  Level Aus ATC (RADAR)
05:52PM -31.1676 152.9166 11° North 217 250 15,200  Level Aus ATC (RADAR)
05:52PM -31.1330 152.9246 11° North 217 250 15,200  Level Aus ATC (RADAR)
05:53PM -31.0875 152.9344 10° North 218 251 15,200 -960 Level Aus ATC (RADAR)
05:54PM -31.0261 152.9481 11° North 238 274 13,600 -1,860 Descending Aus ATC (RADAR)
05:55PM -30.9676 152.9615 11° North 276 318 12,200 -1,560 Descending Aus ATC (RADAR)
05:56PM -30.9012 152.9763 11° North 266 306 11,000 -1,260 Descending Aus ATC (RADAR)
05:57PM -30.8393 152.9929 13° North 247 284 9,900 -1,380 Descending Aus ATC (RADAR)
05:58PM -30.7715 153.0123 14° North 248 285 8,400 -1,200 Descending Aus ATC (RADAR)
05:58PM -30.7381 153.0214 13° North 248 285 8,100 -600 Descending Aus ATC (RADAR)
06:01PM -30.5815 153.0571 11° North 200 -2,580 Descending Aus ATC (Calculated)
06:03PM -30.5105 153.0730 11° North  Level FlightAware Approximate
06:03PM -30.4511 153.0867 211° Southwest  Level Aus ATC (Calculated)
06:04PM -30.4521 153.0860 11° North  Level FlightAware Approximate
06:04PM -30.3817 153.1020 360° North 200  Level Aus ATC (Calculated)
06:04PM -30.3817 153.1020 11° North -540 Descending Aus ATC (Calculated)
06:06PM -30.3206 153.1164 11° North  Level Estimated
06:07PM -30.3206 153.1164 North  Level Estimated
06:08PM -30.3206 153.1164 North  Level Estimated
06:09PM -30.3206 153.1164 North  Level Estimated
06:10PM -30.3206 153.1164 185° South  Level Estimated
06:11PM -30.3206 153.1164 185° South  Level Estimated
06:12PM -30.3206 153.1164 185° South  Level Estimated
06:13PM -30.3206 153.1164 185° South  Level Estimated
06:14PM -30.3206 153.1164 185° South  Level Estimated
06:15PM -30.3206 153.1164 185° South  Level Estimated
06:16PM -30.3206 153.1164 185° South  Level Estimated
06:17PM -30.3206 153.1164 185° South  Level Estimated
06:18PM -30.3206 153.1164 185° South  Level Estimated
06:19PM -30.3206 153.1164 185° South  Level Estimated
06:20PM -30.3206 153.1164 185° South  Level Estimated
06:21PM -30.3206 153.1164 185° South  Level Estimated
06:22PM -30.3206 153.1164 185° South  Level Estimated
06:23PM -30.3206 153.1164 185° South  Level Estimated
06:24PM -30.3206 153.1164 185° South  Level Estimated